Data for 03/04/2006

Time Sea-Level Adjusted Pressure Absolute Pressure Temperature Relative Humidity Dew Point   
(mb) (inHg) (mb) (inHg) (C) (F) (%) (C) (F)
00:05 1007 29.74 836 24.69 0.3 32.6 73 -3.9 24.9
00:10 1007 29.74 837 24.72 0 32 74 -4.1 24.7
00:15 1007 29.74 836 24.69 -0.2 31.6 75 -4.1 24.6
00:20 1007 29.74 836 24.69 -0.4 31.2 76 -4.1 24.7
00:25 1007 29.74 836 24.69 -0.9 30.4 78 -4.3 24.3
00:30 1007 29.74 836 24.69 -1.1 30 78 -4.5 23.9
00:35 1007 29.74 836 24.69 -1.3 29.7 78 -4.6 23.7
00:40 1007 29.74 836 24.69 -1.6 29.1 80 -4.7 23.5
00:45 1007 29.74 836 24.69 -2 28.4 81 -4.9 23.2
00:50 1007 29.74 836 24.69 -2.1 28.1 81 -5 23.1
00:55 1007 29.74 836 24.69 -2.3 27.9 83 -4.8 23.3
01:00 1007 29.74 836 24.69 -2.5 27.6 84 -4.8 23.3
01:05 1007 29.74 837 24.72 -2.5 27.6 84 -4.8 23.3
01:10 1007 29.74 837 24.72 -2.6 27.4 84 -4.9 23.1
01:15 1008 29.77 837 24.72 -2.8 26.9 84 -5.2 22.7
01:20 1008 29.77 837 24.72 -3 26.5 84 -5.3 22.4
01:25 1008 29.77 837 24.72 -3.2 26.3 85 -5.4 22.3
01:30 1008 29.77 837 24.72 -3.2 26.2 84 -5.5 22.1
01:35 1008 29.77 837 24.72 -3.3 26.1 85 -5.5 22.1
01:40 1008 29.77 837 24.72 -3.6 25.5 86 -5.5 22
01:45 1008 29.77 837 24.72 -3.6 25.5 86 -5.6 21.9
01:50 1008 29.77 837 24.72 -3.8 25.2 88 -5.5 22
01:55 1008 29.77 837 24.72 -3.9 25 88 -5.6 21.9
02:00 1008 29.77 837 24.72 -4 24.8 89 -5.5 22
02:05 1008 29.77 837 24.72 -4 24.8 88 -5.7 21.8
02:10 1008 29.77 837 24.72 -3.9 24.9 88 -5.7 21.7
02:15 1008 29.77 837 24.72 -3.9 24.9 87 -5.7 21.7
02:20 1008 29.77 837 24.72 -3.9 25 87 -5.8 21.6
02:25 1008 29.77 837 24.72 -3.9 24.9 87 -5.8 21.6
02:30 1008 29.77 837 24.72 -4.1 24.7 87 -5.8 21.5
02:35 1008 29.77 837 24.72 -4.1 24.6 88 -5.9 21.5
02:40 1008 29.77 837 24.72 -4.2 24.4 88 -5.9 21.3
02:45 1008 29.77 837 24.72 -4.4 24 90 -5.8 21.5
02:50 1008 29.77 837 24.72 -4.8 23.3 91 -6 21.1
02:55 1008 29.77 837 24.72 -4.7 23.5 91 -6 21.3
03:00 1008 29.77 837 24.72 -4.5 23.8 90 -5.9 21.3
03:05 1007 29.74 837 24.72 -4.4 24.1 89 -6 21.3
03:10 1008 29.77 837 24.72 -4.4 24 89 -6 21.3
03:15 1008 29.77 837 24.72 -4.4 24.1 89 -6 21.1
03:20 1008 29.77 837 24.72 -4.5 23.9 89 -6.1 21
03:25 1008 29.77 837 24.72 -4.6 23.8 89 -6.2 20.9
03:30 1007 29.74 837 24.72 -4.8 23.4 90 -6.1 20.9
03:35 1008 29.77 837 24.72 -4.8 23.4 90 -6.2 20.8
03:40 1008 29.77 837 24.72 -4.7 23.5 90 -6 21.1
03:45 1008 29.77 837 24.72 -4.8 23.3 90 -6.2 20.8
03:50 1008 29.77 837 24.72 -4.8 23.3 91 -6.1 21
03:55 1008 29.77 837 24.72 -5.1 22.8 92 -6.2 20.9
04:00 1008 29.77 837 24.72 -5 23.1 92 -6.1 21
04:05 1008 29.77 837 24.72 -4.8 23.3 91 -6.1 20.9
04:10 1008 29.77 837 24.72 -5 23.1 92 -6.1 21.1
04:15 1008 29.77 837 24.72 -5.2 22.7 93 -6.1 21
04:20 1008 29.77 837 24.72 -5 23.1 92 -6.1 21
04:25 1008 29.77 837 24.72 -4.9 23.2 91 -6.2 20.9
04:30 1008 29.77 837 24.72 -4.8 23.3 91 -6.1 21
04:35 1008 29.77 837 24.72 -4.6 23.7 89 -6.1 21
04:40 1008 29.77 837 24.72 -4.6 23.7 89 -6.1 20.9
04:45 1008 29.77 837 24.72 -4.7 23.5 89 -6.2 20.8
04:50 1008 29.77 837 24.72 -4.7 23.5 89 -6.2 20.8
04:55 1008 29.77 837 24.72 -4.8 23.4 90 -6.2 20.9
05:00 1008 29.77 837 24.72 -4.8 23.3 90 -6.1 20.9
05:05 1008 29.77 838 24.75 -4.8 23.4 90 -6.2 20.9
05:10 1008 29.77 838 24.75 -4.7 23.5 90 -6.1 21
05:15 1008 29.77 838 24.75 -4.7 23.5 90 -6.1 21
05:20 1009 29.8 838 24.75 -4.7 23.5 90 -6.1 21.1
05:25 1009 29.8 838 24.75 -4.7 23.6 91 -6 21.2
05:30 1009 29.8 838 24.75 -4.7 23.5 90 -6.1 21
05:35 1009 29.8 838 24.75 -5.1 22.9 92 -6.1 21
05:40 1009 29.8 838 24.75 -5.2 22.6 93 -6.2 20.9
05:45 1009 29.8 838 24.75 -5.3 22.4 94 -6.2 20.8
05:50 1009 29.8 838 24.75 -5.4 22.3 94 -6.2 20.9
05:55 1009 29.8 838 24.75 -5.4 22.3 94 -6.2 20.9
06:00 1009 29.8 838 24.75 -5.3 22.4 94 -6.2 20.9
06:05 1009 29.8 838 24.75 -5.3 22.4 94 -6.2 20.9
06:10 1009 29.8 838 24.75 -5.2 22.7 93 -6.1 21
06:15 1009 29.8 838 24.75 -5.2 22.6 93 -6.1 21
06:20 1009 29.8 838 24.75 -5.2 22.6 93 -6.1 20.9
06:25 1009 29.8 838 24.75 -5.1 22.8 93 -6.1 21.1
06:30 1009 29.8 838 24.75 -5 23 92 -6.1 21.1
06:35 1009 29.8 838 24.75 -4.9 23.1 92 -6.1 21.1
06:40 1009 29.8 838 24.75 -5 23 92 -6.1 21
06:45 1009 29.8 838 24.75 -5.1 22.9 92 -6.1 21
06:50 1009 29.8 838 24.75 -5.1 22.8 93 -6.1 21
06:55 1009 29.8 838 24.75 -5 23 92 -6.1 21.1
07:00 1009 29.8 838 24.75 -4.9 23.1 92 -6 21.2
07:05 1009 29.8 838 24.75 -4.8 23.3 92 -6 21.2
07:10 1009 29.8 838 24.75 -4.9 23.3 92 -6 21.3
07:15 1009 29.8 838 24.75 -4.7 23.5 91 -6 21.1
07:20 1009 29.8 839 24.78 -4.8 23.4 91 -6 21.2
07:25 1009 29.8 839 24.78 -4.5 23.9 90 -5.9 21.4
07:30 1009 29.8 839 24.78 -4.4 24 90 -5.9 21.4
07:35 1010 29.83 839 24.78 -4.4 24.1 89 -5.9 21.4
07:40 1010 29.83 839 24.78 -4.5 23.8 90 -5.9 21.4
07:45 1010 29.83 839 24.78 -4.4 24 90 -5.9 21.4
07:50 1010 29.83 839 24.78 -4.7 23.6 91 -5.9 21.4
07:55 1010 29.83 839 24.78 -4.7 23.5 92 -5.9 21.4
08:00 1010 29.83 839 24.78 -4.8 23.5 91 -6 21.3
08:05 1010 29.83 839 24.78 -5 23 93 -5.9 21.3
08:10 1010 29.83 839 24.78 -4.9 23.2 93 -5.8 21.5
08:15 1010 29.83 839 24.78 -4.8 23.3 92 -5.9 21.4
08:20 1010 29.83 839 24.78 -5 23 93 -6 21.3
08:25 1010 29.83 839 24.78 -4.9 23.2 93 -5.8 21.5
08:30 1010 29.83 839 24.78 -4.3 24.2 91 -5.6 21.9
08:35 1010 29.83 839 24.78 -4.1 24.5 90 -5.6 21.9
08:40 1010 29.83 839 24.78 -4.1 24.6 89 -5.6 21.9
08:45 1010 29.83 840 24.81 -4 24.7 89 -5.6 22
08:50 1011 29.85 840 24.81 -3.9 25 88 -5.5 22.1
08:55 1011 29.85 840 24.81 -3.9 25 88 -5.6 21.9
09:00 1011 29.85 840 24.81 -3.8 25.1 87 -5.6 21.9
09:05 1011 29.85 840 24.81 -3.8 25.1 87 -5.7 21.7
09:10 1011 29.85 840 24.81 -3.9 25.1 87 -5.8 21.6
09:15 1011 29.85 840 24.81 -3.6 25.4 86 -5.6 21.9
09:20 1011 29.85 840 24.81 -3.5 25.7 86 -5.5 22
09:25 1011 29.85 840 24.81 -3.4 25.9 85 -5.5 22.1
09:30 1011 29.85 840 24.81 -3.4 25.9 85 -5.5 22.1
09:35 1011 29.85 841 24.83 -3.3 26 85 -5.4 22.2
09:40 1011 29.85 841 24.83 -3.3 26.1 85 -5.5 22.1
09:45 1012 29.88 841 24.83 -3.4 25.9 85 -5.5 22.1
09:50 1012 29.88 841 24.83 -3.3 26 86 -5.4 22.2
09:55 1012 29.88 841 24.83 -3.3 26.1 85 -5.4 22.2
10:00 1012 29.88 841 24.83 -3.2 26.3 85 -5.4 22.2
10:05 1012 29.88 841 24.83 -3.2 26.2 85 -5.5 22.1
10:10 1012 29.88 841 24.83 -3.3 26 85 -5.6 22
10:15 1012 29.88 841 24.83 -3.6 25.5 88 -5.3 22.4
10:20 1012 29.88 841 24.83 -3.3 26 86 -5.4 22.3
10:25 1012 29.88 841 24.83 -3.1 26.5 83 -5.5 22
10:30 1012 29.88 841 24.83 -3 26.5 84 -5.3 22.4
10:35 1012 29.88 841 24.83 -3 26.6 84 -5.4 22.3
10:40 1012 29.88 841 24.83 -2.8 27 83 -5.3 22.4
10:45 1012 29.88 841 24.83 -3.1 26.3 85 -5.3 22.5
10:50 1012 29.88 841 24.83 -3.3 26.1 86 -5.3 22.4
10:55 1012 29.88 841 24.83 -3.3 26.1 85 -5.4 22.3
11:00 1012 29.88 841 24.83 -2.9 26.7 84 -5.3 22.5
11:05 1012 29.88 841 24.83 -3 26.6 85 -5.2 22.6
11:10 1012 29.88 841 24.83 -2.3 27.8 81 -5.2 22.6
11:15 1011 29.85 841 24.83 -2.1 28.2 81 -5 23
11:20 1011 29.85 841 24.83 -1.7 28.9 78 -5.2 22.7
11:25 1011 29.85 841 24.83 -1.9 28.7 79 -5 23
11:30 1012 29.88 841 24.83 -0.9 30.4 74 -4.9 23.1
11:35 1012 29.88 841 24.83 -0.5 31.2 72 -5 23.1
11:40 1012 29.88 841 24.83 -0.9 30.4 75 -4.8 23.3
11:45 1011 29.85 841 24.83 -1.7 28.9 79 -4.9 23.1
11:50 1011 29.85 841 24.83 -1.4 29.6 76 -5 23
11:55 1011 29.85 840 24.81 -1 30.3 75 -4.9 23.2
12:00 1011 29.85 841 24.83 -1.1 30 76 -4.9 23.2
12:05 1011 29.85 841 24.83 -0.6 31 73 -4.9 23.2
12:10 1011 29.85 840 24.81 -0.3 31.4 72 -4.9 23.3
12:15 1011 29.85 841 24.83 -0.3 31.5 72 -4.6 23.6
12:20 1011 29.85 841 24.83 0.5 33 65 -5.4 22.3
12:25 1011 29.85 840 24.81 1.2 34.2 60 -5.8 21.6
12:30 1011 29.85 840 24.81 1 33.9 58 -6.3 20.7
12:35 1011 29.85 840 24.81 1.7 35 54 -6.7 19.9
12:40 1011 29.85 840 24.81 1.2 34.2 55 -6.9 19.5
12:45 1011 29.85 840 24.81 2.6 36.7 47 -7.5 18.6
12:50 1011 29.85 840 24.81 2.5 36.5 57 -5.1 22.8
12:55 1011 29.85 840 24.81 1.8 35.2 58 -5.6 22
13:00 1011 29.85 840 24.81 2.5 36.5 56 -5.5 22.1
13:05 1011 29.85 840 24.81 2.6 36.6 55 -5.6 21.9
13:10 1011 29.85 840 24.81 3.3 38 53 -5.2 22.6
13:15 1011 29.85 840 24.81 3.9 38.9 49 -5.9 21.4
13:20 1011 29.85 840 24.81 4.5 40.2 47 -5.7 21.8
13:25 1011 29.85 840 24.81 4.9 40.8 45 -6.1 21.1
13:30 1011 29.85 840 24.81 5.5 41.9 41 -6.9 19.7
13:35 1011 29.85 840 24.81 5.8 42.4 39 -7.2 19.1
13:40 1011 29.85 840 24.81 5.5 41.9 40 -7 19.4
13:45 1011 29.85 840 24.81 4.8 40.6 45 -6.2 20.9
13:50 1011 29.85 840 24.81 5 40.9 41 -7.2 19
13:55 1011 29.85 840 24.81 5.5 41.8 37 -8.1 17.5
14:00 1011 29.85 840 24.81 5.1 41.1 40 -7.4 18.6
14:05 1011 29.85 840 24.81 4.6 40.4 36 -9.2 15.5
14:10 1011 29.85 840 24.81 4.8 40.6 33 -10.1 13.8
14:15 1011 29.85 840 24.81 4.6 40.3 34 -10.1 13.9
14:20 1011 29.85 840 24.81 4.2 39.6 32 -11.1 12.1
14:25 1011 29.85 840 24.81 4 39.2 33 -10.9 12.4
14:30 1011 29.85 840 24.81 3.8 38.9 35 -10.4 13.4
14:35 1011 29.85 841 24.83 4 39.1 34 -10.7 12.8
14:40 1011 29.85 841 24.83 4.1 39.3 34 -10.6 13
14:45 1011 29.85 841 24.83 4 39.2 35 -10.3 13.4
14:50 1011 29.85 841 24.83 4 39.2 34 -10.4 13.2
14:55 1012 29.88 841 24.83 3.8 38.8 34 -10.7 12.7
15:00 1012 29.88 841 24.83 3.8 38.8 33 -11.1 12.1
15:05 1012 29.88 841 24.83 3.7 38.7 34 -10.8 12.5
15:10 1012 29.88 841 24.83 3.6 38.5 34 -10.7 12.7
15:15 1012 29.88 841 24.83 3.5 38.2 36 -10.3 13.4
15:20 1012 29.88 841 24.83 3.4 38.2 35 -10.6 12.9
15:25 1012 29.88 841 24.83 3.2 37.8 37 -9.9 14.1
15:30 1012 29.88 841 24.83 3.2 37.8 35 -10.9 12.4
15:35 1012 29.88 841 24.83 3.3 37.9 37 -10.1 13.8
15:40 1012 29.88 841 24.83 3.3 37.9 37 -10.1 13.8
15:45 1012 29.88 842 24.86 3.2 37.7 39 -9.7 14.6
15:50 1012 29.88 842 24.86 3.1 37.6 39 -9.5 14.9
15:55 1012 29.88 842 24.86 3 37.4 39 -9.7 14.5
16:00 1013 29.91 842 24.86 3 37.3 39 -9.6 14.6
16:05 1013 29.91 842 24.86 3 37.4 39 -9.5 14.9
16:10 1013 29.91 842 24.86 3 37.4 40 -9.4 15.1
16:15 1013 29.91 842 24.86 3 37.4 40 -9.2 15.4
16:20 1013 29.91 842 24.86 3 37.5 41 -9 15.9
16:25 1013 29.91 842 24.86 3.1 37.5 41 -8.9 15.9
16:30 1013 29.91 842 24.86 3 37.4 44 -8.2 17.2
16:35 1013 29.91 842 24.86 2.8 37 44 -8.4 16.9
16:40 1013 29.91 842 24.86 2.7 36.8 44 -8.3 17
16:45 1013 29.91 843 24.89 2.6 36.6 46 -7.9 17.7
16:50 1013 29.91 843 24.89 2.6 36.6 47 -7.7 18.1
16:55 1013 29.91 843 24.89 2.5 36.5 48 -7.4 18.6
17:00 1013 29.91 843 24.89 2.5 36.5 48 -7.3 18.9
17:05 1014 29.94 843 24.89 2.5 36.5 48 -7.4 18.7
17:10 1014 29.94 843 24.89 2.5 36.5 48 -7.3 18.8
17:15 1014 29.94 843 24.89 2.4 36.3 49 -7.2 19
17:20 1014 29.94 843 24.89 2.4 36.4 50 -7 19.5
17:25 1014 29.94 843 24.89 2.3 36.2 50 -7.1 19.2
17:30 1014 29.94 843 24.89 2.2 36 51 -6.9 19.6
17:35 1014 29.94 843 24.89 2.2 35.9 52 -6.7 20
17:40 1014 29.94 843 24.89 2.1 35.7 52 -6.8 19.8
17:45 1014 29.94 843 24.89 2.1 35.7 53 -6.6 20.1
17:50 1014 29.94 844 24.92 2 35.7 54 -6.2 20.8
17:55 1014 29.94 844 24.92 1.9 35.5 55 -6.3 20.7
18:00 1015 29.97 844 24.92 1.9 35.4 55 -6.1 20.9
18:05 1015 29.97 844 24.92 1.9 35.5 56 -6.1 21.1
18:10 1015 29.97 844 24.92 2 35.5 55 -6.1 21
18:15 1015 29.97 844 24.92 1.9 35.5 56 -6.1 21.1
18:20 1015 29.97 844 24.92 1.9 35.3 57 -5.8 21.6
18:25 1015 29.97 844 24.92 1.8 35.3 57 -5.8 21.5
18:30 1015 29.97 844 24.92 1.8 35.3 56 -6 21.2
18:35 1015 29.97 845 24.95 1.8 35.3 57 -5.9 21.4
18:40 1016 30 845 24.95 1.8 35.3 56 -5.9 21.3
18:45 1016 30 845 24.95 1.9 35.5 56 -6 21.2
18:50 1016 30 845 24.95 2 35.6 57 -5.5 22
18:55 1016 30 845 24.95 2 35.5 57 -5.8 21.6
19:00 1016 30 845 24.95 2 35.6 57 -5.7 21.7
19:05 1016 30 845 24.95 2 35.6 56 -5.9 21.4
19:10 1016 30 845 24.95 2 35.6 56 -5.8 21.5
19:15 1016 30 845 24.95 2 35.6 57 -5.6 21.9
19:20 1016 30 846 24.98 2.1 35.8 57 -5.5 22.1
19:25 1016 30 846 24.98 2.1 35.7 56 -5.8 21.5
19:30 1016 30 846 24.98 2 35.7 57 -5.6 21.9
19:35 1017 30.03 846 24.98 2 35.6 57 -5.5 22
19:40 1017 30.03 846 24.98 1.9 35.5 58 -5.6 22
19:45 1017 30.03 846 24.98 2 35.5 57 -5.7 21.7
19:50 1017 30.03 846 24.98 2 35.6 56 -5.8 21.6
19:55 1017 30.03 846 24.98 2 35.7 57 -5.5 22.1
20:00 1017 30.03 846 24.98 2 35.6 57 -5.6 21.8
20:05 1017 30.03 846 24.98 2 35.6 57 -5.7 21.7
20:10 1017 30.03 846 24.98 2 35.6 57 -5.7 21.7
20:15 1017 30.03 846 24.98 2 35.6 57 -5.6 22
20:20 1017 30.03 846 24.98 1.9 35.5 59 -5.4 22.4
20:25 1017 30.03 846 24.98 2 35.5 60 -5 23.1
20:30 1017 30.03 846 24.98 1.8 35.2 61 -4.9 23.1
20:35 1017 30.03 847 25.01 1.8 35.2 60 -5.2 22.7
20:40 1017 30.03 847 25.01 1.8 35.3 60 -5.2 22.7
20:45 1017 30.03 847 25.01 1.8 35.3 59 -5.3 22.5
20:50 1018 30.06 847 25.01 2 35.5 59 -5.2 22.6
20:55 1018 30.06 847 25.01 2 35.5 60 -5 22.9
21:00 1018 30.06 847 25.01 1.8 35.2 61 -5 23
21:05 1018 30.06 847 25.01 1.7 35.1 61 -5 23
21:10 1018 30.06 847 25.01 1.6 35 61 -5 22.9
21:15 1018 30.06 847 25.01 1.6 34.8 62 -4.9 23.2
21:20 1018 30.06 847 25.01 1.5 34.6 63 -4.8 23.4
21:25 1018 30.06 847 25.01 1.4 34.5 63 -4.8 23.3
21:30 1018 30.06 847 25.01 1.4 34.5 61 -5.2 22.6
21:35 1018 30.06 847 25.01 1.5 34.7 61 -5.3 22.5
21:40 1018 30.06 847 25.01 1.5 34.7 61 -5.2 22.6
21:45 1018 30.06 848 25.04 1.5 34.7 61 -5.2 22.7
21:50 1018 30.06 848 25.04 1.5 34.6 61 -5.2 22.7
21:55 1018 30.06 848 25.04 1.4 34.6 62 -5.1 22.8
22:00 1019 30.09 848 25.04 1.4 34.5 62 -5.1 22.9
22:05 1019 30.09 848 25.04 1.3 34.3 62 -5.1 22.7
22:10 1019 30.09 848 25.04 1.2 34.2 63 -5.1 22.8
22:15 1019 30.09 848 25.04 1.2 34.2 63 -5.1 22.8
22:20 1019 30.09 848 25.04 1.3 34.3 62 -5.2 22.7
22:25 1019 30.09 848 25.04 1.3 34.3 62 -5.2 22.7
22:30 1019 30.09 848 25.04 1.2 34.1 62 -5.3 22.5
22:35 1019 30.09 848 25.04 1.2 34.2 61 -5.4 22.2
22:40 1019 30.09 848 25.04 1.4 34.4 62 -5.1 22.8
22:45 1019 30.09 848 25.04 1.3 34.3 61 -5.3 22.4
22:50 1019 30.09 848 25.04 1.2 34.2 63 -5.1 22.9
22:55 1019 30.09 848 25.04 1 33.8 64 -5 23
23:00 1019 30.09 848 25.04 1 33.8 65 -4.9 23.1
23:05 1019 30.09 848 25.04 0.9 33.7 65 -4.9 23.2
23:10 1019 30.09 848 25.04 0.9 33.5 66 -4.9 23.2
23:15 1019 30.09 848 25.04 0.8 33.4 66 -4.8 23.3
23:20 1019 30.09 848 25.04 0.7 33.2 66 -4.9 23.1
23:25 1019 30.09 848 25.04 0.6 33.1 66 -5.1 22.9
23:30 1019 30.09 848 25.04 0.5 32.9 66 -5.1 22.8
23:35 1019 30.09 848 25.04 0.5 32.9 66 -5.2 22.6
23:40 1019 30.09 848 25.04 0.5 32.9 66 -5.2 22.6
23:45 1019 30.09 848 25.04 0.5 32.9 65 -5.3 22.5
23:50 1019 30.09 848 25.04 0.4 32.7 65 -5.4 22.2
23:55 1019 30.09 848 25.04 0.3 32.5 65 -5.5 22.1
24:00 1019 30.09 848 25.04 0.1 32.3 65 -5.6 21.9